Time;durP1;ratioP1;P1;durP2;ratioP2;P2;SDS_P1;SDS_P2;PMS_P1;PMS_P2;Temp;Humidity;BMP_temperature;BMP_pressure;BME280_temperature;BME280_humidity;BME280_pressure;Samples;Min_cycle;Max_cycle;Signal;HPM_P1;HPM_P2
2021/07/16 00:03:01;;;;;;;1.13;0.63;;;;;;;;;;10240714;28;20268;-73
2021/07/16 00:08:06;;;;;;;1.00;0.60;;;;;;;;;;10237838;28;20262;-71
2021/07/16 00:13:08;;;;;;;0.87;0.60;;;;;;;;;;10242352;28;20594;-73
2021/07/16 00:18:11;;;;;;;1.13;0.60;;;;;;;;;;10241892;28;20738;-73
2021/07/16 00:23:15;;;;;;;1.80;0.80;;;;;;;;;;10233186;28;20704;-73
2021/07/16 00:28:18;;;;;;;1.07;0.53;;;;;;;;;;10244235;28;20231;-73
2021/07/16 00:33:20;;;;;;;1.40;0.50;;;;;;;;;;10251021;28;20339;-74
2021/07/16 00:38:24;;;;;;;0.93;0.50;;;;;;;;;;10250042;28;20224;-73
2021/07/16 00:43:27;;;;;;;1.00;0.53;;;;;;;;;;10242942;28;20700;-73
2021/07/16 00:48:30;;;;;;;0.70;0.40;;;;;;;;;;10242574;28;20190;-73
2021/07/16 00:53:34;;;;;;;1.57;0.80;;;;;;;;;;10248633;28;20217;-72
2021/07/16 00:58:37;;;;;;;0.80;0.60;;;;;;;;;;10241135;28;20295;-73
2021/07/16 01:03:39;;;;;;;0.90;0.70;;;;;;;;;;10249597;28;20302;-72
2021/07/16 01:08:43;;;;;;;1.23;0.80;;;;;;;;;;10249970;28;20206;-70
2021/07/16 01:13:46;;;;;;;1.37;0.70;;;;;;;;;;10248649;28;20672;-72
2021/07/16 01:18:48;;;;;;;0.87;0.60;;;;;;;;;;10251946;28;20213;-71
2021/07/16 01:23:52;;;;;;;1.57;0.80;;;;;;;;;;10249178;28;20223;-72
2021/07/16 01:28:56;;;;;;;0.80;0.70;;;;;;;;;;10247493;28;20308;-72
2021/07/16 01:33:58;;;;;;;1.97;0.50;;;;;;;;;;10245131;28;20652;-73
2021/07/16 01:39:03;;;;;;;1.07;0.50;;;;;;;;;;10245939;28;20255;-73
2021/07/16 01:44:06;;;;;;;0.77;0.50;;;;;;;;;;10248695;28;20233;-73
2021/07/16 01:49:09;;;;;;;1.37;0.77;;;;;;;;;;10244967;28;20201;-72
2021/07/16 01:54:13;;;;;;;2.53;0.60;;;;;;;;;;10237866;28;20231;-73
2021/07/16 01:59:15;;;;;;;0.70;0.53;;;;;;;;;;10244221;28;20212;-72
2021/07/16 02:04:18;;;;;;;1.23;0.60;;;;;;;;;;10237015;28;20612;-72
2021/07/16 02:09:22;;;;;;;0.40;0.40;;;;;;;;;;10248387;28;20231;-73
2021/07/16 02:14:24;;;;;;;1.80;0.70;;;;;;;;;;10246183;28;20275;-72
2021/07/16 02:19:27;;;;;;;1.10;0.80;;;;;;;;;;10241411;28;20234;-72
2021/07/16 02:24:30;;;;;;;1.73;0.60;;;;;;;;;;10231426;28;20294;-71
2021/07/16 02:29:34;;;;;;;2.47;0.80;;;;;;;;;;10255701;28;20274;-73
2021/07/16 02:34:36;;;;;;;1.77;0.60;;;;;;;;;;10242832;28;20597;-73
2021/07/16 02:39:40;;;;;;;1.03;0.50;;;;;;;;;;10238186;28;20215;-73
2021/07/16 02:44:43;;;;;;;0.70;0.50;;;;;;;;;;10249507;28;20220;-72
2021/07/16 02:49:45;;;;;;;2.03;0.60;;;;;;;;;;10243828;28;20203;-72
2021/07/16 02:54:49;;;;;;;2.07;0.50;;;;;;;;;;10242488;28;20644;-72
2021/07/16 02:59:52;;;;;;;1.40;0.70;;;;;;;;;;10246809;28;20236;-73
2021/07/16 03:04:54;;;;;;;0.50;0.50;;;;;;;;;;10239201;28;20648;-71
2021/07/16 03:09:58;;;;;;;0.73;0.50;;;;;;;;;;10247452;28;20227;-72
2021/07/16 03:15:01;;;;;;;2.00;0.50;;;;;;;;;;10246369;28;20362;-72
2021/07/16 03:20:04;;;;;;;1.43;0.60;;;;;;;;;;10243661;28;20740;-73
2021/07/16 03:25:10;;;;;;;0.93;0.60;;;;;;;;;;10241688;28;21012;-72
2021/07/16 03:30:14;;;;;;;1.27;0.70;;;;;;;;;;10231114;28;20272;-72
2021/07/16 03:35:17;;;;;;;1.33;0.73;;;;;;;;;;10247939;28;20204;-72
2021/07/16 03:40:23;;;;;;;1.47;0.63;;;;;;;;;;10238883;28;20220;-70
2021/07/16 03:45:26;;;;;;;1.70;0.63;;;;;;;;;;10251947;28;20208;-71
2021/07/16 03:50:29;;;;;;;1.30;0.47;;;;;;;;;;10241201;28;20193;-73
2021/07/16 03:55:33;;;;;;;1.57;0.63;;;;;;;;;;10240871;28;20201;-72
2021/07/16 04:00:38;;;;;;;2.77;0.60;;;;;;;;;;10218942;28;20973;-72
2021/07/16 04:05:41;;;;;;;2.13;0.60;;;;;;;;;;10233387;28;20193;-73
2021/07/16 04:10:45;;;;;;;1.27;0.50;;;;;;;;;;10226067;28;20244;-71
2021/07/16 04:15:53;;;;;;;1.90;0.60;;;;;;;;;;10220389;28;20212;-72
2021/07/16 04:21:15;;;;;;;1.10;0.67;;;;;;;;;;10244147;28;20220;-72
2021/07/16 04:26:39;;;;;;;1.57;0.63;;;;;;;;;;10248306;28;20219;-72
2021/07/16 04:31:42;;;;;;;2.33;0.60;;;;;;;;;;10263622;28;20239;-73
2021/07/16 04:36:45;;;;;;;1.47;0.60;;;;;;;;;;10237139;28;20234;-73
2021/07/16 04:41:48;;;;;;;0.90;0.60;;;;;;;;;;10242438;28;20339;-72
2021/07/16 04:46:51;;;;;;;0.97;0.70;;;;;;;;;;10256070;28;20259;-73
2021/07/16 04:51:54;;;;;;;1.97;0.70;;;;;;;;;;10228807;28;20359;-72
2021/07/16 04:56:59;;;;;;;0.93;0.67;;;;;;;;;;10235949;28;20215;-73
2021/07/16 05:02:01;;;;;;;0.97;0.40;;;;;;;;;;10271388;28;20279;-73
2021/07/16 05:07:05;;;;;;;0.50;0.50;;;;;;;;;;10241237;28;20653;-73
2021/07/16 05:12:09;;;;;;;1.40;0.70;;;;;;;;;;10240994;28;20298;-71
2021/07/16 05:17:12;;;;;;;1.97;0.73;;;;;;;;;;10247441;28;20223;-73
2021/07/16 05:22:14;;;;;;;1.77;0.60;;;;;;;;;;10246492;28;20232;-72
2021/07/16 05:27:18;;;;;;;3.53;0.60;;;;;;;;;;10251526;28;20644;-73
2021/07/16 05:32:20;;;;;;;1.30;0.70;;;;;;;;;;10244003;28;20307;-73
2021/07/16 05:37:23;;;;;;;1.13;0.70;;;;;;;;;;10241517;28;20231;-72
2021/07/16 05:42:27;;;;;;;0.97;0.60;;;;;;;;;;10249206;28;20290;-70
2021/07/16 05:47:29;;;;;;;2.90;1.00;;;;;;;;;;10243397;28;20263;-74
2021/07/16 05:52:32;;;;;;;2.80;1.00;;;;;;;;;;10246022;28;20221;-74
2021/07/16 05:57:36;;;;;;;2.17;1.10;;;;;;;;;;10241951;28;20571;-74
2021/07/16 06:02:39;;;;;;;3.50;1.23;;;;;;;;;;10244539;28;20221;-73
2021/07/16 06:07:42;;;;;;;1.37;1.00;;;;;;;;;;10234300;28;20200;-75
2021/07/16 06:12:47;;;;;;;4.57;1.37;;;;;;;;;;10244861;28;20233;-74
2021/07/16 06:17:49;;;;;;;2.50;1.40;;;;;;;;;;10232586;28;20307;-75
2021/07/16 06:22:52;;;;;;;2.57;1.13;;;;;;;;;;10243176;28;20291;-74
2021/07/16 06:27:56;;;;;;;3.70;1.60;;;;;;;;;;10236271;28;20188;-75
2021/07/16 06:32:58;;;;;;;4.63;1.90;;;;;;;;;;10239700;28;20246;-75
2021/07/16 06:38:01;;;;;;;4.00;2.20;;;;;;;;;;10242650;28;20216;-74
2021/07/16 06:43:09;;;;;;;4.37;1.90;;;;;;;;;;10236234;28;21028;-75
2021/07/16 06:48:12;;;;;;;3.73;2.07;;;;;;;;;;10217729;28;20197;-73
2021/07/16 06:53:15;;;;;;;3.87;2.43;;;;;;;;;;10259283;28;20314;-74
2021/07/16 06:58:19;;;;;;;2.30;1.83;;;;;;;;;;10239720;28;20244;-74
2021/07/16 07:03:25;;;;;;;4.83;1.70;;;;;;;;;;10242758;28;20212;-75
2021/07/16 07:08:33;;;;;;;3.67;1.73;;;;;;;;;;10236659;28;20243;-75
2021/07/16 07:13:37;;;;;;;3.08;1.75;;;;;;;;;;10246304;28;20271;-73
2021/07/16 07:18:40;;;;;;;2.33;1.63;;;;;;;;;;10249568;28;20295;-73
2021/07/16 07:23:43;;;;;;;3.05;1.67;;;;;;;;;;10248823;28;20267;-74
2021/07/16 07:28:46;;;;;;;1.85;1.50;;;;;;;;;;10236374;28;20216;-74
2021/07/16 07:33:49;;;;;;;4.93;2.00;;;;;;;;;;10242508;28;20287;-73
2021/07/16 07:38:52;;;;;;;1.90;1.40;;;;;;;;;;10237064;28;20287;-73
2021/07/16 07:43:56;;;;;;;3.08;1.80;;;;;;;;;;10247354;28;20216;-73
2021/07/16 07:49:00;;;;;;;3.63;1.60;;;;;;;;;;10239312;28;20204;-73
2021/07/16 07:54:03;;;;;;;1.90;1.40;;;;;;;;;;10250940;28;20296;-74
2021/07/16 07:59:07;;;;;;;2.35;1.40;;;;;;;;;;10243253;28;20575;-72
2021/07/16 08:04:10;;;;;;;3.55;1.50;;;;;;;;;;10244549;28;20278;-73
2021/07/16 08:09:12;;;;;;;2.63;1.33;;;;;;;;;;10244576;28;20664;-73
2021/07/16 08:14:16;;;;;;;3.00;1.70;;;;;;;;;;10250158;28;20593;-74
2021/07/16 08:19:19;;;;;;;3.00;2.03;;;;;;;;;;10247183;28;20331;-74
2021/07/16 08:24:23;;;;;;;1.67;1.38;;;;;;;;;;10250074;28;20684;-74
2021/07/16 08:29:27;;;;;;;2.28;1.60;;;;;;;;;;10258977;28;20267;-73
2021/07/16 08:34:29;;;;;;;2.33;1.50;;;;;;;;;;10253785;28;20715;-74
2021/07/16 08:39:32;;;;;;;1.83;1.42;;;;;;;;;;10258952;28;20308;-73
2021/07/16 08:44:37;;;;;;;2.75;1.38;;;;;;;;;;10252309;28;20695;-72
2021/07/16 08:49:40;;;;;;;2.17;1.52;;;;;;;;;;10252282;28;20550;-76
2021/07/16 08:54:46;;;;;;;2.75;1.70;;;;;;;;;;10251982;28;20290;-73
2021/07/16 08:59:50;;;;;;;1.75;1.40;;;;;;;;;;10241001;28;20716;-74
2021/07/16 09:04:58;;;;;;;3.40;1.48;;;;;;;;;;10238345;28;20371;-74
2021/07/16 09:10:07;;;;;;;4.20;1.70;;;;;;;;;;10243312;28;20577;-73
2021/07/16 09:15:15;;;;;;;5.35;2.08;;;;;;;;;;10246820;28;20242;-73
2021/07/16 09:20:27;;;;;;;3.25;1.58;;;;;;;;;;10246968;28;20641;-74
2021/07/16 09:25:30;;;;;;;3.40;1.73;;;;;;;;;;10228902;28;20220;-75
2021/07/16 09:30:35;;;;;;;4.00;1.60;;;;;;;;;;10242416;28;20193;-75
2021/07/16 09:35:38;;;;;;;2.88;1.52;;;;;;;;;;10222187;28;20204;-75
2021/07/16 09:40:42;;;;;;;3.33;1.70;;;;;;;;;;10240159;28;20220;-73
2021/07/16 09:45:58;;;;;;;2.95;1.50;;;;;;;;;;10240049;28;20561;-73
2021/07/16 09:51:12;;;;;;;4.18;1.60;;;;;;;;;;10231512;28;20335;-74
2021/07/16 09:56:15;;;;;;;3.75;2.10;;;;;;;;;;10234376;28;20188;-75
2021/07/16 10:01:19;;;;;;;2.38;1.50;;;;;;;;;;10235485;28;20224;-74
2021/07/16 10:06:22;;;;;;;2.78;1.75;;;;;;;;;;10232664;28;20199;-74
2021/07/16 10:11:27;;;;;;;2.30;1.70;;;;;;;;;;10235215;28;20212;-74
2021/07/16 10:16:33;;;;;;;2.67;1.70;;;;;;;;;;10235891;28;20295;-74
2021/07/16 10:21:37;;;;;;;3.25;1.70;;;;;;;;;;10244435;28;20648;-74
2021/07/16 10:26:41;;;;;;;2.20;1.60;;;;;;;;;;10236382;28;20271;-73
2021/07/16 10:31:45;;;;;;;3.58;2.08;;;;;;;;;;10240289;28;20212;-73
2021/07/16 10:36:49;;;;;;;2.15;1.65;;;;;;;;;;10250097;28;20221;-73
2021/07/16 10:41:52;;;;;;;1.95;1.42;;;;;;;;;;10256020;28;20302;-73
2021/07/16 10:46:55;;;;;;;2.78;1.30;;;;;;;;;;10259597;28;20231;-74
2021/07/16 10:52:02;;;;;;;1.58;1.30;;;;;;;;;;10237435;28;20224;-73
2021/07/16 10:57:15;;;;;;;1.58;1.20;;;;;;;;;;10227448;28;20220;-75
2021/07/16 11:02:36;;;;;;;1.80;1.55;;;;;;;;;;10222257;28;20846;-74
2021/07/16 11:07:40;;;;;;;1.63;1.33;;;;;;;;;;10227513;28;20272;-75
2021/07/16 11:12:43;;;;;;;1.95;1.35;;;;;;;;;;10252008;28;20299;-75
2021/07/16 11:17:54;;;;;;;1.35;1.25;;;;;;;;;;10232020;28;20208;-75
2021/07/16 11:23:03;;;;;;;2.97;1.63;;;;;;;;;;10235766;28;20228;-73
2021/07/16 11:28:08;;;;;;;2.22;1.48;;;;;;;;;;10230153;28;20287;-74
2021/07/16 11:33:11;;;;;;;1.67;1.40;;;;;;;;;;10248576;28;20225;-75
2021/07/16 11:38:15;;;;;;;2.60;1.48;;;;;;;;;;10239204;28;20580;-74
2021/07/16 11:43:17;;;;;;;2.13;1.50;;;;;;;;;;10241010;28;20294;-75
2021/07/16 11:48:21;;;;;;;3.83;1.55;;;;;;;;;;10254054;28;20200;-73
2021/07/16 11:53:28;;;;;;;1.77;1.20;;;;;;;;;;10231343;28;20417;-72
2021/07/16 11:58:30;;;;;;;2.58;1.30;;;;;;;;;;10226618;28;20236;-75
2021/07/16 12:03:33;;;;;;;1.65;1.38;;;;;;;;;;10232525;28;20217;-74
2021/07/16 12:08:38;;;;;;;3.30;1.30;;;;;;;;;;10236972;28;20267;-74
2021/07/16 12:13:41;;;;;;;1.42;1.30;;;;;;;;;;10231541;28;20233;-76
2021/07/16 12:18:45;;;;;;;1.77;1.15;;;;;;;;;;10250181;28;20240;-74
2021/07/16 12:23:50;;;;;;;1.75;1.30;;;;;;;;;;10241507;28;20319;-73
2021/07/16 12:29:04;;;;;;;4.63;2.72;;;;;;;;;;10243250;28;20323;-75
2021/07/16 12:34:20;;;;;;;1.83;1.13;;;;;;;;;;10247095;28;20275;-74
2021/07/16 12:39:24;;;;;;;2.33;1.50;;;;;;;;;;10237471;28;20600;-77
2021/07/16 12:44:27;;;;;;;4.00;1.15;;;;;;;;;;10261186;28;20247;-75
2021/07/16 12:49:29;;;;;;;2.83;1.23;;;;;;;;;;10238044;28;20271;-75
2021/07/16 12:54:33;;;;;;;1.55;1.00;;;;;;;;;;10234658;28;20320;-74
2021/07/16 12:59:36;;;;;;;1.35;0.98;;;;;;;;;;10257368;28;20680;-74
2021/07/16 13:04:46;;;;;;;1.38;1.20;;;;;;;;;;10237370;28;20651;-75
2021/07/16 13:09:50;;;;;;;2.47;1.00;;;;;;;;;;10248778;28;20207;-74
2021/07/16 13:14:57;;;;;;;1.33;1.10;;;;;;;;;;10238064;28;20295;-73
2021/07/16 13:20:02;;;;;;;1.55;1.20;;;;;;;;;;10242148;28;20216;-74
2021/07/16 13:25:07;;;;;;;1.35;0.90;;;;;;;;;;10229377;28;20286;-73
2021/07/16 13:30:11;;;;;;;0.98;0.93;;;;;;;;;;10239435;28;20208;-74
2021/07/16 13:35:13;;;;;;;2.05;0.75;;;;;;;;;;10210860;28;20294;-73
2021/07/16 13:40:17;;;;;;;3.78;2.05;;;;;;;;;;10230926;28;20212;-73
2021/07/16 13:45:20;;;;;;;1.40;1.00;;;;;;;;;;10220111;28;20231;-75
2021/07/16 13:50:23;;;;;;;1.58;1.10;;;;;;;;;;10214219;28;20661;-74
2021/07/16 13:55:27;;;;;;;1.15;1.05;;;;;;;;;;10218196;28;20562;-74
2021/07/16 14:00:29;;;;;;;1.65;1.00;;;;;;;;;;10222274;28;20227;-74
2021/07/16 14:05:32;;;;;;;1.67;1.10;;;;;;;;;;10242260;28;20797;-73
2021/07/16 14:10:36;;;;;;;0.60;0.60;;;;;;;;;;10222618;28;20180;-72
2021/07/16 14:15:39;;;;;;;1.70;0.82;;;;;;;;;;10225842;28;20204;-75
2021/07/16 14:20:42;;;;;;;2.90;1.50;;;;;;;;;;10242767;28;20571;-73
2021/07/16 14:25:46;;;;;;;1.75;1.50;;;;;;;;;;10233119;28;20226;-75
2021/07/16 14:30:51;;;;;;;1.90;1.33;;;;;;;;;;10233519;28;20209;-74
2021/07/16 14:35:53;;;;;;;0.77;0.77;;;;;;;;;;10244224;28;20192;-74
2021/07/16 14:40:57;;;;;;;1.65;0.93;;;;;;;;;;10240549;28;20303;-72
2021/07/16 14:46:00;;;;;;;1.30;0.85;;;;;;;;;;10227061;28;20747;-73
2021/07/16 14:51:03;;;;;;;2.47;1.50;;;;;;;;;;10233770;28;20219;-73
2021/07/16 14:56:06;;;;;;;1.02;0.90;;;;;;;;;;10236292;28;20204;-75
2021/07/16 15:01:10;;;;;;;1.25;0.80;;;;;;;;;;10245492;28;20230;-73
2021/07/16 15:06:13;;;;;;;1.73;0.80;;;;;;;;;;10234829;28;20204;-76
2021/07/16 15:11:17;;;;;;;1.33;1.00;;;;;;;;;;10239183;28;20597;-76
2021/07/16 15:16:19;;;;;;;1.42;0.70;;;;;;;;;;10233357;28;20259;-75
2021/07/16 15:21:22;;;;;;;1.05;0.80;;;;;;;;;;10240700;28;20278;-76
2021/07/16 15:26:26;;;;;;;1.02;0.80;;;;;;;;;;10241128;28;20861;-75
2021/07/16 15:31:29;;;;;;;1.70;1.20;;;;;;;;;;10261039;28;20239;-75
2021/07/16 15:36:33;;;;;;;1.58;0.80;;;;;;;;;;10234481;28;20196;-74
2021/07/16 15:41:37;;;;;;;1.85;1.20;;;;;;;;;;10238968;28;20229;-72
2021/07/16 15:46:40;;;;;;;1.17;0.90;;;;;;;;;;10237707;28;20287;-73
2021/07/16 15:51:43;;;;;;;3.03;1.60;;;;;;;;;;10234521;28;20221;-75
2021/07/16 15:56:47;;;;;;;0.90;0.90;;;;;;;;;;10242085;28;20566;-73
2021/07/16 16:01:49;;;;;;;1.42;1.02;;;;;;;;;;10243183;28;20592;-73
2021/07/16 16:06:52;;;;;;;12.07;7.25;;;;;;;;;;10238942;28;20221;-75
2021/07/16 16:11:56;;;;;;;1.85;1.10;;;;;;;;;;10248767;28;20624;-74
2021/07/16 16:16:59;;;;;;;2.47;1.30;;;;;;;;;;10256658;28;20271;-74
2021/07/16 16:22:02;;;;;;;1.08;0.98;;;;;;;;;;10254547;28;20233;-74
2021/07/16 16:27:06;;;;;;;2.03;0.80;;;;;;;;;;10255287;28;20601;-74
2021/07/16 16:32:09;;;;;;;1.23;0.70;;;;;;;;;;10244522;28;20208;-75
2021/07/16 16:37:12;;;;;;;3.13;0.88;;;;;;;;;;10260680;28;20230;-74
2021/07/16 16:42:16;;;;;;;4.15;2.03;;;;;;;;;;10244291;28;20216;-74
2021/07/16 16:47:19;;;;;;;4.25;2.20;;;;;;;;;;10245170;28;20276;-74
2021/07/16 16:52:21;;;;;;;1.25;0.93;;;;;;;;;;10259919;28;20287;-76
2021/07/16 16:57:25;;;;;;;2.25;1.33;;;;;;;;;;10240745;28;20192;-75
2021/07/16 17:02:28;;;;;;;1.00;0.90;;;;;;;;;;10255239;28;20239;-74
2021/07/16 17:07:31;;;;;;;1.15;0.88;;;;;;;;;;10251899;28;20200;-75
2021/07/16 17:12:35;;;;;;;4.03;2.20;;;;;;;;;;10246045;28;20259;-74
2021/07/16 17:17:38;;;;;;;1.85;0.90;;;;;;;;;;10253919;28;20212;-72
2021/07/16 17:22:41;;;;;;;1.73;1.00;;;;;;;;;;10253810;28;20669;-74
2021/07/16 17:27:45;;;;;;;2.63;1.55;;;;;;;;;;10243736;28;20291;-73
2021/07/16 17:32:48;;;;;;;4.85;2.08;;;;;;;;;;10238300;28;20212;-74
2021/07/16 17:37:52;;;;;;;2.50;1.50;;;;;;;;;;10243975;28;20698;-73
2021/07/16 17:42:57;;;;;;;1.67;1.10;;;;;;;;;;10246164;28;20216;-75
2021/07/16 17:47:59;;;;;;;1.40;1.08;;;;;;;;;;10240502;28;20292;-74
2021/07/16 17:53:02;;;;;;;4.28;1.50;;;;;;;;;;10246312;28;20217;-75
2021/07/16 17:58:09;;;;;;;2.10;1.30;;;;;;;;;;10241296;28;20572;-74
2021/07/16 18:03:12;;;;;;;2.10;1.17;;;;;;;;;;10255007;28;20238;-74
2021/07/16 18:08:15;;;;;;;4.88;1.63;;;;;;;;;;10242523;28;20231;-74
2021/07/16 18:13:19;;;;;;;4.68;2.05;;;;;;;;;;10238740;28;20375;-73
2021/07/16 18:18:21;;;;;;;7.07;2.35;;;;;;;;;;10254446;28;20207;-75
2021/07/16 18:23:24;;;;;;;2.00;1.10;;;;;;;;;;10244125;28;20235;-73
2021/07/16 18:28:28;;;;;;;1.75;1.20;;;;;;;;;;10238348;28;20200;-75
2021/07/16 18:33:31;;;;;;;3.47;1.95;;;;;;;;;;10246519;28;20330;-74
2021/07/16 18:38:33;;;;;;;2.05;1.45;;;;;;;;;;10240796;28;20260;-74
2021/07/16 18:43:37;;;;;;;1.60;1.20;;;;;;;;;;10237361;28;20489;-74
2021/07/16 18:48:40;;;;;;;1.98;1.25;;;;;;;;;;10255880;28;20242;-73
2021/07/16 18:53:43;;;;;;;3.45;1.70;;;;;;;;;;10240896;28;20229;-75
2021/07/16 18:58:47;;;;;;;2.97;1.80;;;;;;;;;;10246586;28;20629;-74
2021/07/16 19:03:50;;;;;;;2.50;1.67;;;;;;;;;;10230914;28;20319;-74
2021/07/16 19:08:53;;;;;;;5.07;2.30;;;;;;;;;;10238748;28;20223;-73
2021/07/16 19:13:58;;;;;;;6.33;2.60;;;;;;;;;;10225938;28;20703;-74
2021/07/16 19:19:01;;;;;;;4.97;2.33;;;;;;;;;;10242481;28;20336;-74
2021/07/16 19:24:03;;;;;;;3.77;2.13;;;;;;;;;;10240054;28;20220;-74
2021/07/16 19:29:07;;;;;;;6.07;3.37;;;;;;;;;;10243705;28;20203;-74
2021/07/16 19:34:10;;;;;;;5.50;2.40;;;;;;;;;;10237341;28;20212;-76
2021/07/16 19:39:13;;;;;;;4.13;2.10;;;;;;;;;;10252383;28;20271;-74
2021/07/16 19:44:17;;;;;;;6.20;3.13;;;;;;;;;;10223028;28;20857;-75
2021/07/16 19:49:19;;;;;;;9.07;4.07;;;;;;;;;;10238775;28;20200;-75
2021/07/16 19:54:23;;;;;;;7.90;4.60;;;;;;;;;;10236886;28;20208;-73
2021/07/16 19:59:26;;;;;;;12.27;8.37;;;;;;;;;;10217409;28;20200;-74
2021/07/16 20:04:29;;;;;;;5.20;2.90;;;;;;;;;;10216957;28;20210;-73
2021/07/16 20:09:32;;;;;;;5.93;2.67;;;;;;;;;;10221295;28;20299;-74
2021/07/16 20:14:36;;;;;;;5.43;2.70;;;;;;;;;;10214094;28;20307;-75
2021/07/16 20:19:39;;;;;;;4.20;2.23;;;;;;;;;;10234236;28;20677;-74
2021/07/16 20:24:42;;;;;;;6.03;2.80;;;;;;;;;;10239991;28;20232;-74
2021/07/16 20:29:46;;;;;;;7.47;3.03;;;;;;;;;;10231963;28;20248;-75
2021/07/16 20:34:49;;;;;;;6.93;3.30;;;;;;;;;;10244400;28;20562;-74
2021/07/16 20:39:52;;;;;;;7.20;3.90;;;;;;;;;;10229970;28;20193;-73
2021/07/16 20:44:56;;;;;;;9.37;5.50;;;;;;;;;;10234119;28;21023;-73
2021/07/16 20:49:59;;;;;;;12.20;7.43;;;;;;;;;;10233695;28;20307;-73
2021/07/16 20:55:01;;;;;;;5.77;2.90;;;;;;;;;;10239651;28;20308;-73
2021/07/16 21:00:07;;;;;;;7.83;3.80;;;;;;;;;;10239631;28;20683;-74
2021/07/16 21:05:10;;;;;;;6.53;3.20;;;;;;;;;;10234582;28;20220;-74
2021/07/16 21:10:14;;;;;;;5.30;2.80;;;;;;;;;;10234402;28;20243;-71
2021/07/16 21:15:18;;;;;;;6.17;3.80;;;;;;;;;;10258651;28;20216;-70
2021/07/16 21:20:20;;;;;;;5.50;3.13;;;;;;;;;;10252058;28;20228;-72
2021/07/16 21:25:23;;;;;;;9.50;4.97;;;;;;;;;;10242772;28;20216;-72
2021/07/16 21:30:27;;;;;;;6.27;3.23;;;;;;;;;;10248219;28;20315;-71
2021/07/16 21:35:30;;;;;;;8.80;5.10;;;;;;;;;;10251111;28;20218;-73
2021/07/16 21:40:33;;;;;;;6.87;3.83;;;;;;;;;;10243868;28;20221;-73
2021/07/16 21:45:37;;;;;;;5.57;3.33;;;;;;;;;;10238410;28;20247;-74
2021/07/16 21:51:05;;;;;;;5.77;3.20;;;;;;;;;;10241776;28;20216;-74
2021/07/16 21:56:27;;;;;;;6.67;3.10;;;;;;;;;;10234261;28;20986;-74
2021/07/16 22:01:51;;;;;;;4.73;2.70;;;;;;;;;;10242760;28;20212;-74
2021/07/16 22:07:14;;;;;;;6.63;3.40;;;;;;;;;;10243475;28;20221;-73
2021/07/16 22:12:37;;;;;;;6.00;3.00;;;;;;;;;;10245571;28;20220;-75
2021/07/16 22:18:01;;;;;;;6.20;3.00;;;;;;;;;;10240551;28;20204;-74
2021/07/16 22:23:04;;;;;;;5.47;2.70;;;;;;;;;;10234494;28;20224;-73
2021/07/16 22:28:08;;;;;;;11.07;7.43;;;;;;;;;;10241362;28;20196;-74
2021/07/16 22:33:17;;;;;;;6.40;3.10;;;;;;;;;;10244096;28;20270;-73
2021/07/16 22:38:19;;;;;;;5.20;3.10;;;;;;;;;;10237047;28;20669;-74
2021/07/16 22:43:23;;;;;;;6.60;3.50;;;;;;;;;;10244973;28;20249;-74
2021/07/16 22:48:27;;;;;;;7.30;3.70;;;;;;;;;;10243757;28;20200;-75
2021/07/16 22:53:29;;;;;;;9.17;5.30;;;;;;;;;;10251203;28;20248;-75
2021/07/16 22:58:32;;;;;;;8.03;5.20;;;;;;;;;;10245750;28;20613;-73
2021/07/16 23:03:36;;;;;;;7.77;5.00;;;;;;;;;;10249347;28;20323;-74
2021/07/16 23:08:39;;;;;;;9.13;5.60;;;;;;;;;;10239460;28;20232;-74
2021/07/16 23:13:42;;;;;;;8.23;5.37;;;;;;;;;;10247005;28;20247;-75
2021/07/16 23:18:46;;;;;;;8.67;5.13;;;;;;;;;;10252112;28;20202;-74
2021/07/16 23:23:49;;;;;;;8.07;4.67;;;;;;;;;;10232534;28;20280;-74
2021/07/16 23:28:52;;;;;;;12.17;5.40;;;;;;;;;;10253032;28;20709;-74
2021/07/16 23:33:56;;;;;;;7.73;4.53;;;;;;;;;;10244368;28;20216;-74
2021/07/16 23:38:58;;;;;;;7.40;4.63;;;;;;;;;;10245940;28;20279;-75
2021/07/16 23:44:01;;;;;;;7.90;4.60;;;;;;;;;;10249182;28;20212;-75
2021/07/16 23:49:04;;;;;;;8.97;5.03;;;;;;;;;;10235648;28;20346;-76
2021/07/16 23:54:07;;;;;;;8.77;5.60;;;;;;;;;;10241903;28;20291;-75
2021/07/16 23:59:09;;;;;;;7.60;4.63;;;;;;;;;;10240240;28;20196;-74
